Time;durP1;ratioP1;P1;durP2;ratioP2;P2;SDS_P1;SDS_P2;PMS_P1;PMS_P2;Temp;Humidity;BMP_temperature;BMP_pressure;BME280_temperature;BME280_humidity;BME280_pressure;Samples;Min_cycle;Max_cycle;Signal;HPM_P1;HPM_P2
2023/06/19 00:02:16;;;;;;;11.68;8.25;;;25.30;80.00;;;;;;5093541;28;20020;-53
2023/06/19 00:04:42;;;;;;;9.20;7.47;;;25.30;80.10;;;;;;5093199;28;20427;-51
2023/06/19 00:07:07;;;;;;;12.93;8.73;;;25.30;80.10;;;;;;5093899;28;20050;-52
2023/06/19 00:09:33;;;;;;;8.57;7.75;;;25.30;80.30;;;;;;5093681;28;20111;-49
2023/06/19 00:11:59;;;;;;;14.30;8.32;;;25.30;80.40;;;;;;5093957;28;20012;-52
2023/06/19 00:14:25;;;;;;;8.70;7.80;;;25.30;80.30;;;;;;5093058;28;20030;-50
2023/06/19 00:16:51;;;;;;;9.63;7.63;;;25.30;80.50;;;;;;5093789;28;20103;-52
2023/06/19 00:19:17;;;;;;;19.40;7.75;;;25.30;80.70;;;;;;5093688;28;20036;-53
2023/06/19 00:21:43;;;;;;;9.77;7.47;;;25.20;81.00;;;;;;5075644;28;20081;-51
2023/06/19 00:24:10;;;;;;;9.32;7.45;;;25.10;81.50;;;;;;5093051;28;20077;-54
2023/06/19 00:26:36;;;;;;;9.75;7.80;;;25.00;82.00;;;;;;5093602;28;20020;-50
2023/06/19 00:29:01;;;;;;;9.45;8.50;;;25.10;82.30;;;;;;5093715;28;20396;-53
2023/06/19 00:31:27;;;;;;;11.45;7.93;;;25.00;82.40;;;;;;5093449;28;20020;-56
2023/06/19 00:33:53;;;;;;;16.08;8.63;;;25.00;82.80;;;;;;5093003;28;20028;-50
2023/06/19 00:36:24;;;;;;;10.13;8.35;;;25.00;83.10;;;;;;5095821;28;20027;-51
2023/06/19 00:38:49;;;;;;;12.45;8.18;;;24.90;83.30;;;;;;5093334;28;20024;-50
2023/06/19 00:41:16;;;;;;;10.32;7.97;;;24.90;83.60;;;;;;5093168;28;20029;-48
2023/06/19 00:43:42;;;;;;;10.05;8.95;;;24.90;83.90;;;;;;5092715;28;20020;-49
2023/06/19 00:46:08;;;;;;;12.52;8.15;;;24.80;84.00;;;;;;5074306;28;20020;-53
2023/06/19 00:48:34;;;;;;;8.77;7.82;;;24.70;85.20;;;;;;5093482;28;20177;-54
2023/06/19 00:51:00;;;;;;;10.70;7.45;;;24.30;86.40;;;;;;5093048;28;20427;-53
2023/06/19 00:53:26;;;;;;;9.00;7.05;;;24.20;87.60;;;;;;5092509;28;20502;-52
2023/06/19 00:55:54;;;;;;;8.23;7.18;;;24.10;87.90;;;;;;5092550;28;20093;-56
2023/06/19 00:58:24;;;;;;;8.07;7.28;;;24.00;88.60;;;;;;5092956;28;20158;-54
2023/06/19 01:00:50;;;;;;;8.50;6.95;;;24.00;88.90;;;;;;5092707;28;20468;-49
2023/06/19 01:03:16;;;;;;;14.45;7.40;;;24.00;88.30;;;;;;5092759;28;20099;-48
2023/06/19 01:05:42;;;;;;;12.93;7.07;;;23.90;88.80;;;;;;5092309;28;20111;-52
2023/06/19 01:08:43;;;;;;;8.25;6.80;;;23.80;89.10;;;;;;5092687;28;20476;-51
2023/06/19 01:11:10;;;;;;;9.35;6.63;;;23.80;89.50;;;;;;5092543;28;20032;-52
2023/06/19 01:13:50;;;;;;;9.10;6.97;;;23.80;89.60;;;;;;5091480;28;20399;-50
2023/06/19 01:16:16;;;;;;;9.43;6.70;;;23.80;90.30;;;;;;5092222;28;20110;-51
2023/06/19 01:18:42;;;;;;;7.90;7.15;;;23.80;90.30;;;;;;5092479;28;20028;-47
2023/06/19 01:21:16;;;;;;;7.00;6.28;;;23.80;90.40;;;;;;5092294;28;20110;-49
2023/06/19 01:23:42;;;;;;;10.93;6.97;;;23.80;90.60;;;;;;5091967;28;20020;-50
2023/06/19 01:26:08;;;;;;;10.13;6.78;;;23.80;90.50;;;;;;5091859;28;20118;-52
2023/06/19 01:28:40;;;;;;;7.85;6.63;;;23.80;90.40;;;;;;5092282;28;20077;-51
2023/06/19 01:31:20;;;;;;;7.18;6.45;;;23.80;90.70;;;;;;5092170;28;20027;-50
2023/06/19 01:33:49;;;;;;;8.73;6.70;;;23.70;91.20;;;;;;5091819;28;20028;-50
2023/06/19 01:36:17;;;;;;;7.95;7.13;;;23.70;91.30;;;;;;5090639;28;20024;-50
2023/06/19 01:38:44;;;;;;;9.68;6.60;;;23.70;91.30;;;;;;5092327;28;20434;-52
2023/06/19 01:41:10;;;;;;;7.53;6.85;;;23.70;91.40;;;;;;5092008;28;20268;-50
2023/06/19 01:43:37;;;;;;;12.18;7.20;;;23.60;91.30;;;;;;5091709;28;20024;-54
2023/06/19 01:46:02;;;;;;;7.70;6.82;;;23.70;91.40;;;;;;5091641;28;20035;-49
2023/06/19 01:48:28;;;;;;;14.48;6.47;;;23.70;91.40;;;;;;5091974;28;20028;-52
2023/06/19 01:50:54;;;;;;;11.32;7.68;;;23.70;91.50;;;;;;5091859;28;20020;-50
2023/06/19 01:53:20;;;;;;;9.20;7.30;;;23.70;91.40;;;;;;5091401;28;20024;-51
2023/06/19 01:55:45;;;;;;;7.80;6.95;;;23.60;91.50;;;;;;5091496;28;20031;-54
2023/06/19 01:58:11;;;;;;;16.25;7.70;;;23.70;91.90;;;;;;5091831;28;20393;-51
2023/06/19 02:00:37;;;;;;;16.77;7.72;;;23.40;92.10;;;;;;5091411;28;20020;-54
2023/06/19 02:03:03;;;;;;;9.32;7.22;;;23.20;92.30;;;;;;5091918;28;20024;-55
2023/06/19 02:05:32;;;;;;;8.82;6.63;;;23.10;93.20;;;;;;5091332;28;20107;-52
2023/06/19 02:07:58;;;;;;;7.07;6.38;;;23.00;93.60;;;;;;5091995;28;20112;-52
2023/06/19 02:10:23;;;;;;;11.63;6.65;;;22.80;94.00;;;;;;5091624;28;20066;-49
2023/06/19 02:12:49;;;;;;;8.15;7.30;;;22.80;94.30;;;;;;5073039;28;20024;-53
2023/06/19 02:15:14;;;;;;;8.68;6.90;;;22.80;94.40;;;;;;5091195;28;20564;-53
2023/06/19 02:17:42;;;;;;;9.75;7.28;;;22.80;94.60;;;;;;5091562;28;20028;-49
2023/06/19 02:20:11;;;;;;;7.78;6.97;;;22.80;94.60;;;;;;5091436;28;20103;-51
2023/06/19 02:22:39;;;;;;;11.07;7.18;;;22.70;95.20;;;;;;5091156;28;20063;-50
2023/06/19 02:25:06;;;;;;;8.70;6.30;;;22.60;95.40;;;;;;5092174;28;20664;-49
2023/06/19 02:27:31;;;;;;;6.85;6.07;;;22.50;95.80;;;;;;5095706;28;20024;-49
2023/06/19 02:29:57;;;;;;;8.55;6.07;;;22.50;96.20;;;;;;5095631;28;20104;-50
2023/06/19 02:32:23;;;;;;;9.68;6.53;;;22.40;96.50;;;;;;5095046;28;20479;-51
2023/06/19 02:34:48;;;;;;;9.18;6.65;;;22.40;96.80;;;;;;5095306;28;20077;-50
2023/06/19 02:37:14;;;;;;;7.38;6.25;;;22.40;96.60;;;;;;5094689;28;20554;-56
2023/06/19 02:39:39;;;;;;;9.00;6.72;;;22.40;96.40;;;;;;5095623;28;20080;-49
2023/06/19 02:42:06;;;;;;;7.88;6.10;;;22.50;96.30;;;;;;5095565;28;20103;-48
2023/06/19 02:44:31;;;;;;;10.10;6.35;;;22.50;96.30;;;;;;5094668;28;20021;-49
2023/06/19 02:46:57;;;;;;;11.80;6.50;;;22.50;96.50;;;;;;5095408;28;20028;-49
2023/06/19 02:49:22;;;;;;;9.32;7.32;;;22.50;96.80;;;;;;5095461;28;20039;-49
2023/06/19 02:51:48;;;;;;;8.32;6.50;;;22.50;96.90;;;;;;5095277;28;20028;-49
2023/06/19 02:54:13;;;;;;;6.28;5.70;;;22.50;97.20;;;;;;5094589;28;20028;-49
2023/06/19 02:56:39;;;;;;;6.78;6.18;;;22.40;97.40;;;;;;5095304;28;20035;-49
2023/06/19 02:59:05;;;;;;;7.90;6.35;;;22.30;97.50;;;;;;5095114;28;20053;-52
2023/06/19 03:01:30;;;;;;;8.23;6.78;;;22.30;97.60;;;;;;5095137;28;20468;-49
2023/06/19 03:03:56;;;;;;;9.15;6.00;;;22.30;97.60;;;;;;5094791;28;20031;-50
2023/06/19 03:06:21;;;;;;;8.70;6.30;;;22.30;97.80;;;;;;5095911;28;20020;-56
2023/06/19 03:08:47;;;;;;;13.77;7.07;;;22.30;98.20;;;;;;5095819;28;20026;-54
2023/06/19 03:11:13;;;;;;;10.07;6.45;;;22.40;98.10;;;;;;5095625;28;20062;-54
2023/06/19 03:13:52;;;;;;;7.63;6.25;;;22.30;98.10;;;;;;5094965;28;20099;-53
2023/06/19 03:16:18;;;;;;;9.80;6.38;;;22.30;98.20;;;;;;5095210;28;20028;-50
2023/06/19 03:18:44;;;;;;;7.65;5.78;;;22.30;98.30;;;;;;5094856;28;20023;-51
2023/06/19 03:21:14;;;;;;;17.10;6.72;;;22.30;98.20;;;;;;5094636;28;20484;-52
2023/06/19 03:23:41;;;;;;;9.77;6.43;;;22.30;98.30;;;;;;5094665;28;20032;-53
2023/06/19 03:26:07;;;;;;;8.40;7.13;;;22.30;98.40;;;;;;5095006;28;20499;-50
2023/06/19 03:28:32;;;;;;;12.70;6.65;;;22.20;98.90;;;;;;5076546;28;20115;-50
2023/06/19 03:30:58;;;;;;;8.48;7.15;;;22.10;99.20;;;;;;5094749;28;20503;-50
2023/06/19 03:33:24;;;;;;;8.88;6.32;;;21.90;99.70;;;;;;5094138;28;20387;-55
2023/06/19 03:35:49;;;;;;;9.20;6.53;;;21.90;99.90;;;;;;5094163;28;20020;-52
2023/06/19 03:38:15;;;;;;;8.13;6.40;;;21.80;99.90;;;;;;5092737;28;20036;-50
2023/06/19 03:40:40;;;;;;;10.63;6.50;;;21.80;99.90;;;;;;5094550;28;20117;-50
2023/06/19 03:43:06;;;;;;;9.52;6.13;;;21.90;99.90;;;;;;5093909;28;20031;-52
2023/06/19 03:45:32;;;;;;;7.93;6.15;;;21.90;99.90;;;;;;5094017;28;20047;-48
2023/06/19 03:47:57;;;;;;;11.70;6.45;;;22.00;99.90;;;;;;5094332;28;20024;-52
2023/06/19 03:50:23;;;;;;;12.80;6.97;;;22.00;99.90;;;;;;5094202;28;20024;-50
2023/06/19 03:52:48;;;;;;;8.88;5.85;;;22.10;99.90;;;;;;5093639;28;20541;-54
2023/06/19 03:55:14;;;;;;;6.78;5.82;;;22.10;99.90;;;;;;5093886;28;20496;-49
2023/06/19 03:57:39;;;;;;;9.82;6.03;;;22.20;99.90;;;;;;5094082;28;20077;-50
2023/06/19 04:00:07;;;;;;;6.47;5.82;;;22.20;99.90;;;;;;5093883;28;20028;-51
2023/06/19 04:02:33;;;;;;;8.23;5.90;;;22.30;99.90;;;;;;5093927;28;20107;-54
2023/06/19 04:04:59;;;;;;;8.25;5.78;;;22.30;99.90;;;;;;5094213;28;20016;-51
2023/06/19 04:07:24;;;;;;;7.20;5.50;;;22.30;99.90;;;;;;5093912;28;20080;-49
2023/06/19 04:09:50;;;;;;;10.88;5.57;;;22.20;99.90;;;;;;5094162;28;20031;-49
2023/06/19 04:12:15;;;;;;;6.53;5.80;;;22.20;99.90;;;;;;5093820;28;20035;-50
2023/06/19 04:14:41;;;;;;;5.85;5.35;;;22.30;99.90;;;;;;5093031;28;20625;-52
2023/06/19 04:17:06;;;;;;;6.00;5.40;;;22.20;99.90;;;;;;5093889;28;20028;-50
2023/06/19 04:19:32;;;;;;;5.43;4.82;;;22.20;99.90;;;;;;5095992;28;20023;-51
2023/06/19 04:21:57;;;;;;;7.05;5.38;;;22.30;99.90;;;;;;5093996;28;20035;-51
2023/06/19 04:24:23;;;;;;;6.20;5.32;;;22.30;99.90;;;;;;5092930;28;20028;-49
2023/06/19 04:26:48;;;;;;;4.97;4.50;;;22.30;99.90;;;;;;5093359;28;20047;-50
2023/06/19 04:29:16;;;;;;;5.45;5.05;;;22.30;99.90;;;;;;5093516;28;20035;-51
2023/06/19 04:31:46;;;;;;;5.35;4.40;;;22.40;99.90;;;;;;5093413;28;20023;-51
2023/06/19 04:34:14;;;;;;;4.82;4.38;;;22.40;99.90;;;;;;5092582;28;20119;-54
2023/06/19 04:36:39;;;;;;;4.65;4.25;;;22.50;99.90;;;;;;5092201;28;20028;-50
2023/06/19 04:39:06;;;;;;;5.75;3.90;;;22.50;99.90;;;;;;5093325;28;20016;-50
2023/06/19 04:41:31;;;;;;;3.90;3.60;;;22.60;99.90;;;;;;5093213;28;20019;-49
2023/06/19 04:43:57;;;;;;;3.67;3.40;;;22.60;99.90;;;;;;5092735;28;20475;-49
2023/06/19 04:46:22;;;;;;;4.88;3.83;;;22.70;99.90;;;;;;5093014;28;20024;-54
2023/06/19 04:48:51;;;;;;;6.30;3.38;;;22.80;99.90;;;;;;5092072;28;20028;-50
2023/06/19 04:51:20;;;;;;;4.03;3.67;;;22.90;99.90;;;;;;5074774;28;20020;-52
2023/06/19 04:53:49;;;;;;;3.85;3.53;;;23.10;99.90;;;;;;5092517;28;20107;-51
2023/06/19 04:56:15;;;;;;;3.85;2.80;;;23.30;99.90;;;;;;5092471;28;20114;-50
2023/06/19 04:58:46;;;;;;;3.88;2.95;;;23.40;99.90;;;;;;5092954;28;20051;-52
2023/06/19 05:01:13;;;;;;;3.50;3.03;;;23.40;99.90;;;;;;5093128;28;20576;-50
2023/06/19 05:03:39;;;;;;;5.72;2.75;;;24.00;99.90;;;;;;5092286;28;20024;-51
2023/06/19 05:06:05;;;;;;;5.10;2.72;;;25.00;98.50;;;;;;5092890;28;20410;-48
2023/06/19 05:08:30;;;;;;;4.45;2.90;;;26.00;95.90;;;;;;5092833;28;20191;-50
2023/06/19 05:10:57;;;;;;;2.95;2.65;;;26.60;94.80;;;;;;5092429;28;20100;-49
2023/06/19 05:13:23;;;;;;;3.10;2.80;;;26.90;93.70;;;;;;5074051;28;20077;-50
2023/06/19 05:15:50;;;;;;;3.33;2.70;;;27.00;93.10;;;;;;5073917;28;20500;-49
2023/06/19 05:18:16;;;;;;;6.43;2.75;;;27.00;93.00;;;;;;5092657;28;20020;-54
2023/06/19 05:20:41;;;;;;;5.47;2.70;;;26.90;93.10;;;;;;5107868;22;20040;-53
2023/06/19 05:23:07;;;;;;;3.20;2.88;;;26.80;92.90;;;;;;5071649;28;20035;-48
2023/06/19 05:25:32;;;;;;;2.88;2.65;;;26.70;93.30;;;;;;5071746;28;20518;-48
2023/06/19 05:27:58;;;;;;;2.90;2.70;;;26.70;93.40;;;;;;5071972;28;20029;-49
2023/06/19 05:30:23;;;;;;;13.70;2.50;;;26.70;93.40;;;;;;5071808;28;20037;-46
2023/06/19 05:32:49;;;;;;;3.13;2.90;;;26.90;93.10;;;;;;5071610;28;20082;-45
2023/06/19 05:35:14;;;;;;;2.45;2.25;;;27.10;92.90;;;;;;5071474;28;20039;-47
2023/06/19 05:37:42;;;;;;;2.72;2.40;;;27.20;92.80;;;;;;5070758;28;20024;-49
2023/06/19 05:40:09;;;;;;;4.85;2.63;;;27.30;92.70;;;;;;5071703;28;20020;-47
2023/06/19 05:42:38;;;;;;;5.03;2.75;;;27.40;92.60;;;;;;5071399;28;20480;-50
2023/06/19 05:45:04;;;;;;;3.70;2.40;;;27.60;92.50;;;;;;5071274;28;20021;-48
2023/06/19 05:47:30;;;;;;;3.80;3.00;;;28.00;91.90;;;;;;5071841;28;20049;-46
2023/06/19 05:49:56;;;;;;;5.95;2.42;;;27.90;91.60;;;;;;5071756;28;20078;-48
2023/06/19 05:52:22;;;;;;;3.55;2.40;;;27.60;92.20;;;;;;5071880;28;20028;-46
2023/06/19 05:54:48;;;;;;;2.80;2.55;;;27.30;92.60;;;;;;5071416;28;20098;-45
2023/06/19 05:57:15;;;;;;;2.60;2.40;;;27.20;92.90;;;;;;5054026;28;20024;-45
2023/06/19 05:59:41;;;;;;;4.32;2.47;;;27.00;93.00;;;;;;5071501;28;20378;-47
2023/06/19 06:02:07;;;;;;;9.98;2.80;;;26.90;93.50;;;;;;5071722;28;20086;-51
2023/06/19 06:04:34;;;;;;;2.85;2.55;;;26.70;94.00;;;;;;5071317;28;20111;-52
2023/06/19 06:07:00;;;;;;;3.45;2.90;;;26.60;94.50;;;;;;5071490;28;20396;-47
2023/06/19 06:09:26;;;;;;;4.07;2.90;;;26.90;94.50;;;;;;5071490;28;20077;-50
2023/06/19 06:11:52;;;;;;;4.40;2.90;;;27.30;94.10;;;;;;5071695;28;20020;-47
2023/06/19 06:14:18;;;;;;;4.25;3.20;;;27.80;93.40;;;;;;5070783;28;20396;-47
2023/06/19 06:16:43;;;;;;;5.43;2.83;;;27.80;92.80;;;;;;5071443;28;20024;-47
2023/06/19 06:19:09;;;;;;;3.15;2.90;;;27.90;93.00;;;;;;5071645;28;20446;-50
2023/06/19 06:21:34;;;;;;;6.05;3.28;;;27.60;92.90;;;;;;5071328;28;20102;-47
2023/06/19 06:24:00;;;;;;;2.90;2.63;;;27.10;93.60;;;;;;5070692;28;20032;-51
2023/06/19 06:26:27;;;;;;;4.70;2.67;;;27.30;94.10;;;;;;5071383;28;20052;-45
2023/06/19 06:28:53;;;;;;;6.25;2.70;;;27.80;93.50;;;;;;5071699;28;20029;-42
2023/06/19 06:31:19;;;;;;;4.35;2.80;;;28.00;93.00;;;;;;5056873;28;20024;-45
2023/06/19 06:33:44;;;;;;;6.15;3.15;;;28.40;92.20;;;;;;5070210;28;20052;-48
2023/06/19 06:36:10;;;;;;;2.85;2.65;;;28.40;92.10;;;;;;5052748;28;20090;-45
2023/06/19 06:38:36;;;;;;;3.10;2.80;;;28.40;92.10;;;;;;5055564;28;20120;-50
2023/06/19 06:41:02;;;;;;;6.10;2.58;;;28.40;91.60;;;;;;5051254;28;20021;-45
2023/06/19 06:43:27;;;;;;;3.55;3.08;;;28.40;91.70;;;;;;5066208;28;20025;-51
2023/06/19 06:45:53;;;;;;;3.50;2.65;;;28.70;91.50;;;;;;5052039;28;20051;-45
2023/06/19 06:48:19;;;;;;;3.47;2.78;;;29.20;92.10;;;;;;5064639;28;20027;-47
2023/06/19 06:50:44;;;;;;;2.65;2.42;;;29.80;90.60;;;;;;5051305;28;20029;-41
2023/06/19 06:53:10;;;;;;;5.07;2.60;;;30.30;89.70;;;;;;5051136;28;20108;-46
2023/06/19 06:55:35;;;;;;;3.15;2.70;;;30.80;87.80;;;;;;5067161;28;20024;-49
2023/06/19 06:58:01;;;;;;;3.70;2.30;;;31.20;86.80;;;;;;5051033;28;20029;-49
2023/06/19 07:00:26;;;;;;;3.38;2.30;;;31.60;85.50;;;;;;5058376;28;20024;-46
2023/06/19 07:02:52;;;;;;;2.97;2.75;;;32.40;83.70;;;;;;5070833;28;20380;-47
2023/06/19 07:05:17;;;;;;;7.03;2.65;;;32.50;81.60;;;;;;5051011;28;20029;-50
2023/06/19 07:07:43;;;;;;;5.43;2.58;;;32.30;82.20;;;;;;5051197;28;20492;-45
2023/06/19 07:10:09;;;;;;;2.42;2.22;;;32.00;82.70;;;;;;5051017;28;20067;-48
2023/06/19 07:12:36;;;;;;;2.65;2.42;;;32.10;83.00;;;;;;5059266;28;20020;-48
2023/06/19 07:15:01;;;;;;;2.50;2.30;;;32.30;82.60;;;;;;5074077;28;20029;-46
2023/06/19 07:17:27;;;;;;;3.25;2.70;;;32.30;81.70;;;;;;5074598;28;20029;-47
2023/06/19 07:19:52;;;;;;;2.90;2.40;;;32.30;82.60;;;;;;5074467;28;20472;-48
2023/06/19 07:22:18;;;;;;;5.13;2.75;;;32.40;81.40;;;;;;5074224;28;20060;-46
2023/06/19 07:24:43;;;;;;;5.28;2.67;;;32.30;81.30;;;;;;5073746;28;20063;-46
2023/06/19 07:27:09;;;;;;;6.70;2.70;;;31.50;82.50;;;;;;5074220;28;20048;-45
2023/06/19 07:29:34;;;;;;;5.38;2.75;;;30.60;84.60;;;;;;5060334;28;20037;-42
2023/06/19 07:32:02;;;;;;;6.80;2.70;;;29.90;86.10;;;;;;5036721;28;20032;-48
2023/06/19 07:34:28;;;;;;;6.32;2.70;;;29.30;87.90;;;;;;5058965;28;20472;-47
2023/06/19 07:36:53;;;;;;;4.18;2.72;;;28.90;89.60;;;;;;5074150;28;20111;-40
2023/06/19 07:39:19;;;;;;;3.75;3.03;;;29.10;90.10;;;;;;5074148;28;20035;-49
2023/06/19 07:41:45;;;;;;;6.55;2.85;;;29.30;88.40;;;;;;5074050;28;20055;-44
2023/06/19 07:44:11;;;;;;;2.67;2.42;;;29.80;88.70;;;;;;5074052;28;20452;-49
2023/06/19 07:46:36;;;;;;;4.63;2.35;;;30.30;86.70;;;;;;5073820;28;20052;-44
2023/06/19 07:49:02;;;;;;;2.80;2.47;;;30.40;86.40;;;;;;5067125;28;20036;-45
2023/06/19 07:51:28;;;;;;;2.60;2.40;;;30.60;86.40;;;;;;5053923;28;20029;-45
2023/06/19 07:53:53;;;;;;;6.38;3.28;;;30.60;87.10;;;;;;5053658;28;20052;-45
2023/06/19 07:56:19;;;;;;;3.70;2.92;;;30.50;86.50;;;;;;5053939;28;20170;-45
2023/06/19 07:58:44;;;;;;;5.78;2.65;;;30.20;87.40;;;;;;5054319;28;20401;-48
2023/06/19 08:01:10;;;;;;;3.10;2.88;;;30.50;87.30;;;;;;5055567;28;20037;-44
2023/06/19 08:03:36;;;;;;;5.43;4.18;;;31.10;97.80;;;;;;5053349;28;20025;-50
2023/06/19 08:06:01;;;;;;;3.58;3.05;;;31.00;97.30;;;;;;5053153;28;20179;-50
2023/06/19 08:08:27;;;;;;;3.08;2.78;;;30.20;96.90;;;;;;5053607;28;20033;-46
2023/06/19 08:10:52;;;;;;;7.13;3.10;;;30.10;97.20;;;;;;5053691;28;20045;-48
2023/06/19 08:13:18;;;;;;;7.00;3.05;;;30.20;97.00;;;;;;5053341;28;20025;-52
2023/06/19 08:15:45;;;;;;;3.28;3.08;;;30.00;96.50;;;;;;5053202;28;20450;-48
2023/06/19 08:18:10;;;;;;;3.47;3.17;;;29.70;89.60;;;;;;5053992;28;20028;-51
2023/06/19 08:20:35;;;;;;;5.53;3.50;;;29.80;88.80;;;;;;5053014;28;20032;-44
2023/06/19 08:23:01;;;;;;;2.65;2.45;;;29.80;89.00;;;;;;5052660;28;20033;-48
2023/06/19 08:25:26;;;;;;;4.43;3.35;;;29.80;89.70;;;;;;5053157;28;20029;-52
2023/06/19 08:27:52;;;;;;;3.25;2.95;;;29.60;89.10;;;;;;5053255;28;20487;-47
2023/06/19 08:30:17;;;;;;;5.43;3.17;;;29.70;89.50;;;;;;5053357;28;20025;-48
2023/06/19 08:32:46;;;;;;;2.83;2.63;;;29.80;88.60;;;;;;5052945;28;20028;-46
2023/06/19 08:35:12;;;;;;;3.22;2.85;;;29.70;88.60;;;;;;5060118;28;20495;-44
2023/06/19 08:37:37;;;;;;;4.03;3.60;;;29.40;89.70;;;;;;5073132;28;20029;-47
2023/06/19 08:40:08;;;;;;;5.75;3.55;;;29.10;89.90;;;;;;5073366;28;20028;-51
2023/06/19 08:42:34;;;;;;;5.80;3.33;;;28.70;90.40;;;;;;5072702;28;20391;-48
2023/06/19 08:44:59;;;;;;;5.53;3.20;;;28.30;91.10;;;;;;5054907;28;20017;-48
2023/06/19 08:47:32;;;;;;;3.60;3.35;;;28.10;91.50;;;;;;5073266;28;20039;-49
2023/06/19 08:49:58;;;;;;;6.53;2.97;;;28.00;92.10;;;;;;5058459;28;20025;-47
2023/06/19 08:52:24;;;;;;;6.82;3.42;;;27.90;92.20;;;;;;5052551;28;20033;-50
2023/06/19 08:54:49;;;;;;;4.15;3.45;;;27.90;92.20;;;;;;5052145;28;20508;-50
2023/06/19 08:57:15;;;;;;;4.68;3.05;;;28.20;92.40;;;;;;5068478;28;20028;-45
2023/06/19 08:59:51;;;;;;;3.47;3.17;;;28.30;91.70;;;;;;5060920;28;20025;-55
2023/06/19 09:02:17;;;;;;;4.22;2.88;;;28.00;92.00;;;;;;5070718;28;20107;-45
2023/06/19 09:04:42;;;;;;;5.70;3.45;;;27.80;92.60;;;;;;5072088;28;20107;-49
2023/06/19 09:07:09;;;;;;;5.05;3.63;;;27.70;92.70;;;;;;5073085;28;20531;-49
2023/06/19 09:09:34;;;;;;;4.32;3.65;;;27.60;93.10;;;;;;5072989;28;20031;-48
2023/06/19 09:12:02;;;;;;;4.38;3.22;;;27.70;93.20;;;;;;5072649;28;20036;-50
2023/06/19 09:14:49;;;;;;;3.88;3.45;;;28.20;92.90;;;;;;5070227;28;20067;-52
2023/06/19 09:17:21;;;;;;;4.88;4.38;;;28.70;92.20;;;;;;5040101;28;20104;-54
2023/06/19 09:19:51;;;;;;;3.72;3.42;;;28.60;99.90;;;;;;5052416;28;20493;-51
2023/06/19 09:22:18;;;;;;;3.60;3.15;;;28.40;99.90;;;;;;5058750;28;20029;-47
2023/06/19 09:24:44;;;;;;;4.90;3.08;;;28.50;99.90;;;;;;5071857;28;20023;-50
2023/06/19 09:27:18;;;;;;;5.25;3.10;;;28.60;99.90;;;;;;5067244;28;20044;-49
2023/06/19 09:29:47;;;;;;;4.00;3.13;;;28.50;99.90;;;;;;5055239;28;20408;-48
2023/06/19 09:32:24;;;;;;;4.13;3.58;;;28.70;99.90;;;;;;5071882;28;20324;-46
2023/06/19 09:34:51;;;;;;;7.03;3.03;;;28.70;99.90;;;;;;5067012;28;20024;-51
2023/06/19 09:37:24;;;;;;;5.55;3.25;;;28.50;99.90;;;;;;5051388;28;20031;-47
2023/06/19 09:39:54;;;;;;;3.90;3.60;;;28.50;99.90;;;;;;5071919;28;20115;-50
2023/06/19 09:42:26;;;;;;;2.90;2.70;;;28.40;99.90;;;;;;5071472;28;20036;-51
2023/06/19 09:44:54;;;;;;;2.67;2.47;;;28.30;99.90;;;;;;5071093;28;20120;-47
2023/06/19 09:47:24;;;;;;;5.95;3.20;;;27.90;99.90;;;;;;5071352;28;20467;-48
2023/06/19 09:49:54;;;;;;;7.88;3.30;;;27.90;99.90;;;;;;5071311;28;20032;-50
2023/06/19 09:52:24;;;;;;;9.45;3.20;;;28.00;99.90;;;;;;5070708;28;20516;-51
2023/06/19 09:54:52;;;;;;;4.03;2.85;;;28.30;99.90;;;;;;5050767;28;20032;-47
2023/06/19 09:57:18;;;;;;;4.20;2.83;;;28.70;99.90;;;;;;5070479;28;20020;-50
2023/06/19 09:59:46;;;;;;;4.85;2.75;;;28.60;99.90;;;;;;5070813;28;20412;-51
2023/06/19 10:02:14;;;;;;;6.15;2.65;;;28.80;99.90;;;;;;5070462;28;20033;-52
2023/06/19 10:04:51;;;;;;;3.28;2.92;;;28.70;99.90;;;;;;5066281;28;20021;-49
2023/06/19 10:07:21;;;;;;;2.40;2.30;;;28.90;99.90;;;;;;5071092;28;20116;-49
2023/06/19 10:10:12;;;;;;;2.97;2.50;;;28.60;99.90;;;;;;5070462;28;20039;-50
2023/06/19 10:12:40;;;;;;;2.53;2.33;;;28.60;99.90;;;;;;5070700;28;20029;-51
2023/06/19 10:15:15;;;;;;;4.65;2.50;;;28.60;99.90;;;;;;5070308;28;20036;-52
2023/06/19 10:17:46;;;;;;;3.67;2.78;;;28.50;99.90;;;;;;5070316;28;20048;-51
2023/06/19 10:20:31;;;;;;;3.13;2.83;;;28.30;99.90;;;;;;5067253;28;20027;-48
2023/06/19 10:23:02;;;;;;;;;;;28.20;99.90;;;;;;5067473;28;20025;-51
2023/06/19 10:25:31;;;;;;;5.70;2.40;;;28.10;99.90;;;;;;5068034;28;19909;-55
2023/06/19 10:27:57;;;;;;;22.23;19.35;;;28.30;99.90;;;;;;5070089;28;20077;-53
2023/06/19 10:30:22;;;;;;;5.18;4.20;;;28.40;99.90;;;;;;5052556;28;20024;-52
2023/06/19 10:32:48;;;;;;;30.58;21.63;;;28.40;99.90;;;;;;5070090;28;20122;-48
2023/06/19 10:35:16;;;;;;;3.88;3.50;;;28.30;99.90;;;;;;5069985;28;20025;-53
2023/06/19 10:37:44;;;;;;;4.55;3.15;;;28.20;99.90;;;;;;5070219;28;20036;-54
2023/06/19 10:40:10;;;;;;;5.53;3.20;;;28.20;99.90;;;;;;5050961;28;20476;-51
2023/06/19 10:42:40;;;;;;;3.47;2.60;;;28.10;99.90;;;;;;5070108;28;20095;-51
2023/06/19 10:45:08;;;;;;;4.47;2.78;;;28.10;99.90;;;;;;5060751;28;20025;-54
2023/06/19 10:47:34;;;;;;;5.32;3.05;;;28.20;99.90;;;;;;5070170;28;20435;-57
2023/06/19 10:50:00;;;;;;;4.22;3.00;;;28.10;99.90;;;;;;5074471;28;20029;-53
2023/06/19 10:52:29;;;;;;;3.65;3.33;;;28.00;99.90;;;;;;5074482;28;20012;-50
2023/06/19 10:54:55;;;;;;;5.25;2.80;;;28.00;99.90;;;;;;5074409;28;20024;-50
2023/06/19 10:57:31;;;;;;;8.07;3.45;;;28.00;99.90;;;;;;5056990;28;20099;-51
2023/06/19 10:59:58;;;;;;;5.97;3.30;;;27.90;99.90;;;;;;5074479;28;20035;-51
2023/06/19 11:02:24;;;;;;;3.88;3.17;;;27.70;99.90;;;;;;5074076;28;20510;-51
2023/06/19 11:04:53;;;;;;;7.68;2.78;;;27.60;99.90;;;;;;5072377;28;20403;-50
2023/06/19 11:07:19;;;;;;;4.72;2.97;;;27.70;99.90;;;;;;5052933;28;20032;-52
2023/06/19 11:09:44;;;;;;;3.30;3.10;;;27.50;99.90;;;;;;5071402;28;20020;-51
2023/06/19 11:12:10;;;;;;;2.95;2.50;;;27.70;99.90;;;;;;5074068;28;20020;-52
2023/06/19 11:14:39;;;;;;;2.72;2.53;;;27.70;99.90;;;;;;5072688;28;20056;-50
2023/06/19 11:17:06;;;;;;;3.15;2.92;;;27.70;99.90;;;;;;5074826;28;20027;-47
2023/06/19 11:19:33;;;;;;;3.05;2.80;;;27.70;99.90;;;;;;5074911;28;20474;-49
2023/06/19 11:22:01;;;;;;;6.13;2.50;;;27.60;92.50;;;;;;5096331;22;20147;-52
2023/06/19 11:24:28;;;;;;;2.83;2.63;;;28.40;92.70;;;;;;5091520;28;20501;-53
2023/06/19 11:26:57;;;;;;;2.63;2.50;;;27.50;92.10;;;;;;5075764;28;20032;-57
2023/06/19 11:29:28;;;;;;;3.97;2.75;;;27.60;92.50;;;;;;5094522;28;20020;-54
2023/06/19 11:32:07;;;;;;;2.53;2.33;;;27.50;93.10;;;;;;5093700;28;20650;-56
2023/06/19 11:34:35;;;;;;;2.95;2.20;;;27.60;92.70;;;;;;5092863;28;20039;-52
2023/06/19 11:37:00;;;;;;;3.53;2.97;;;27.80;92.60;;;;;;5093951;28;20076;-54
2023/06/19 11:39:27;;;;;;;34.13;23.35;;;27.90;92.90;;;;;;5089764;28;20031;-56
2023/06/19 11:41:53;;;;;;;8.00;4.78;;;28.10;92.20;;;;;;5073520;28;20341;-54
2023/06/19 11:44:18;;;;;;;2.83;2.63;;;28.10;91.70;;;;;;5081567;28;20121;-56
2023/06/19 11:46:44;;;;;;;3.80;2.85;;;28.20;91.30;;;;;;5086582;28;20047;-55
2023/06/19 11:49:18;;;;;;;2.60;2.38;;;28.10;91.50;;;;;;5093586;28;20107;-55
2023/06/19 11:51:44;;;;;;;3.75;3.00;;;28.20;91.00;;;;;;5093367;28;20020;-53
2023/06/19 11:54:11;;;;;;;4.00;2.40;;;28.30;90.80;;;;;;5093048;28;20487;-52
2023/06/19 11:56:37;;;;;;;3.00;2.60;;;28.40;91.00;;;;;;5094359;28;20386;-55
2023/06/19 11:59:03;;;;;;;6.35;2.47;;;28.30;90.50;;;;;;5093569;28;20102;-56
2023/06/19 12:01:31;;;;;;;2.50;2.30;;;28.60;90.60;;;;;;5093826;28;20120;-53
2023/06/19 12:03:56;;;;;;;3.17;2.35;;;28.30;91.30;;;;;;5093582;28;20028;-56
2023/06/19 12:06:22;;;;;;;3.40;2.58;;;28.30;91.40;;;;;;5093268;28;20030;-54
2023/06/19 12:08:47;;;;;;;3.78;2.38;;;28.30;90.90;;;;;;5093322;28;20108;-54
2023/06/19 12:11:13;;;;;;;2.20;2.10;;;28.30;91.30;;;;;;5093549;28;20035;-53
2023/06/19 12:13:40;;;;;;;8.45;2.53;;;28.50;91.10;;;;;;5093068;28;20384;-56
2023/06/19 12:16:07;;;;;;;3.58;2.60;;;28.40;90.40;;;;;;5093193;28;20024;-55
2023/06/19 12:18:32;;;;;;;3.53;2.38;;;28.50;89.30;;;;;;5093591;28;20104;-56
2023/06/19 12:20:57;;;;;;;2.97;2.13;;;28.40;90.10;;;;;;5093307;28;20107;-55
2023/06/19 12:23:23;;;;;;;3.47;3.08;;;28.50;89.30;;;;;;5074707;28;20093;-57
2023/06/19 12:25:48;;;;;;;6.50;2.03;;;28.50;92.60;;;;;;5092975;28;20042;-57
2023/06/19 12:28:18;;;;;;;2.30;2.15;;;28.60;92.60;;;;;;5094002;28;20032;-59
2023/06/19 12:30:44;;;;;;;2.28;2.17;;;28.50;93.00;;;;;;5093730;28;20400;-58
2023/06/19 12:33:10;;;;;;;2.45;2.30;;;28.50;88.10;;;;;;5092765;28;20032;-58
2023/06/19 12:35:40;;;;;;;1.95;1.80;;;28.60;86.00;;;;;;5091720;28;20077;-58
2023/06/19 12:38:06;;;;;;;4.53;2.35;;;28.60;85.70;;;;;;5093488;28;20028;-55
2023/06/19 12:40:32;;;;;;;2.65;2.25;;;28.70;84.70;;;;;;5093129;28;20016;-60
2023/06/19 12:42:57;;;;;;;3.70;2.35;;;28.80;85.50;;;;;;5092801;28;20032;-56
2023/06/19 12:45:23;;;;;;;3.00;2.63;;;28.90;84.50;;;;;;5092656;28;20020;-52